Time,TemperatureF,DewpointF,PressureIn,WindDirection,WindDirectionDegrees,WindSpeedMPH,WindSpeedGustMPH,Humidity,HourlyPrecipIn,Conditions,Clouds,dailyrainin,SolarRadiationWatts/m^2,SoftwareType,DateUTC
2013-07-31 00:18:00,76.4,75.0,30.15,SE,146,0.0,0.0,94,0.00,,,0.00,0,weatherlink.com 1.10,2013-07-31 04:18:00,
2013-07-31 00:32:00,76.2,75.0,30.15,SE,146,0.0,0.0,95,0.00,,,0.00,0,weatherlink.com 1.10,2013-07-31 04:32:00,
2013-07-31 00:48:00,76.1,75.0,30.16,SE,146,0.0,0.0,95,0.00,,,0.00,0,weatherlink.com 1.10,2013-07-31 04:48:00,
2013-07-31 01:03:00,76.0,75.0,30.15,SE,146,0.0,0.0,95,0.00,,,0.00,0,weatherlink.com 1.10,2013-07-31 05:03:00,
2013-07-31 01:18:00,75.8,74.0,30.15,SE,146,0.0,0.0,95,0.00,,,0.00,0,weatherlink.com 1.10,2013-07-31 05:18:00,
2013-07-31 01:33:00,75.6,74.0,30.14,SE,146,0.0,0.0,95,0.00,,,0.00,0,weatherlink.com 1.10,2013-07-31 05:33:00,
2013-07-31 02:03:00,75.2,74.0,30.13,SE,146,0.0,0.0,96,0.00,,,0.00,0,weatherlink.com 1.10,2013-07-31 06:03:00,
2013-07-31 02:18:00,75.0,74.0,30.12,SE,146,0.0,0.0,96,0.00,,,0.00,0,weatherlink.com 1.10,2013-07-31 06:18:00,
2013-07-31 02:33:00,74.8,74.0,30.11,SE,146,0.0,0.0,96,0.00,,,0.00,0,weatherlink.com 1.10,2013-07-31 06:33:00,
2013-07-31 03:03:00,74.4,73.0,30.10,SE,146,0.0,0.0,96,0.00,,,0.00,0,weatherlink.com 1.10,2013-07-31 07:03:00,
2013-07-31 03:18:00,74.3,73.0,30.09,SE,146,0.0,0.0,96,0.00,,,0.00,0,weatherlink.com 1.10,2013-07-31 07:18:00,
2013-07-31 03:33:00,74.3,73.0,30.09,SE,146,0.0,0.0,96,0.00,,,0.00,0,weatherlink.com 1.10,2013-07-31 07:33:00,
2013-07-31 03:48:00,74.1,73.0,30.09,SE,146,0.0,0.0,96,0.00,,,0.00,0,weatherlink.com 1.10,2013-07-31 07:48:00,
2013-07-31 04:04:00,74.0,73.0,30.09,SE,146,0.0,0.0,96,0.00,,,0.00,0,weatherlink.com 1.10,2013-07-31 08:04:00,
2013-07-31 04:18:00,73.9,73.0,30.09,SE,146,0.0,0.0,97,0.00,,,0.00,0,weatherlink.com 1.10,2013-07-31 08:18:00,
2013-07-31 04:33:00,73.9,73.0,30.09,SE,146,0.0,0.0,97,0.00,,,0.00,0,weatherlink.com 1.10,2013-07-31 08:33:00,
2013-07-31 04:48:00,73.9,73.0,30.09,SE,146,0.0,0.0,97,0.00,,,0.00,0,weatherlink.com 1.10,2013-07-31 08:48:00,
2013-07-31 05:03:00,73.8,73.0,30.09,SE,146,0.0,0.0,97,0.00,,,0.00,0,weatherlink.com 1.10,2013-07-31 09:03:00,
2013-07-31 05:18:00,73.9,73.0,30.09,SE,146,0.0,0.0,97,0.00,,,0.00,0,weatherlink.com 1.10,2013-07-31 09:18:00,
2013-07-31 05:34:00,73.9,73.0,30.09,SE,146,0.0,0.0,97,0.00,,,0.00,0,weatherlink.com 1.10,2013-07-31 09:34:00,
2013-07-31 06:04:00,73.8,73.0,30.11,SE,146,0.0,0.0,97,0.00,,,0.00,0,weatherlink.com 1.10,2013-07-31 10:04:00,
2013-07-31 06:34:00,73.8,73.0,30.11,SE,146,0.0,0.0,97,0.00,,,0.00,0,weatherlink.com 1.10,2013-07-31 10:34:00,
2013-07-31 07:18:00,74.3,73.0,30.12,SE,146,0.0,0.0,97,0.00,,,0.00,28,weatherlink.com 1.10,2013-07-31 11:18:00,
2013-07-31 07:33:00,75.0,74.0,30.13,SE,146,0.0,0.0,97,0.00,,,0.00,56,weatherlink.com 1.10,2013-07-31 11:33:00,
2013-07-31 07:48:00,76.6,76.0,30.13,SE,146,0.0,0.0,98,0.00,,,0.00,109,weatherlink.com 1.10,2013-07-31 11:48:00,
2013-07-31 08:03:00,78.5,78.0,30.13,SE,146,0.0,0.0,98,0.00,,,0.00,195,weatherlink.com 1.10,2013-07-31 12:03:00,
2013-07-31 08:18:00,80.1,80.0,30.13,SE,146,0.0,0.0,98,0.00,,,0.00,244,weatherlink.com 1.10,2013-07-31 12:18:00,
2013-07-31 08:34:00,82.1,80.0,30.14,SE,146,2.0,2.0,92,0.00,,,0.00,274,weatherlink.com 1.10,2013-07-31 12:34:00,
2013-07-31 08:49:00,83.4,80.0,30.14,ESE,105,0.0,3.0,88,0.00,,,0.00,346,weatherlink.com 1.10,2013-07-31 12:49:00,
2013-07-31 09:04:00,85.0,80.0,30.14,East,80,0.0,4.0,84,0.00,,,0.00,113,weatherlink.com 1.10,2013-07-31 13:04:00,
2013-07-31 09:19:00,84.4,79.0,30.15,ESE,111,0.0,3.0,83,0.00,,,0.00,95,weatherlink.com 1.10,2013-07-31 13:19:00,
2013-07-31 09:34:00,83.8,79.0,30.14,ESE,107,0.0,2.0,86,0.00,,,0.00,62,weatherlink.com 1.10,2013-07-31 13:34:00,
2013-07-31 10:04:00,84.3,82.0,30.15,ENE,69,0.0,2.0,91,0.07,,,0.07,696,weatherlink.com 1.10,2013-07-31 14:04:00,
2013-07-31 10:20:00,85.8,81.0,30.15,ESE,119,1.0,4.0,84,0.07,,,0.07,677,weatherlink.com 1.10,2013-07-31 14:20:00,
2013-07-31 10:34:00,87.5,80.0,30.15,South,191,2.0,3.0,79,0.07,,,0.07,756,weatherlink.com 1.10,2013-07-31 14:34:00,
2013-07-31 10:49:00,87.7,80.0,30.15,SSE,151,0.0,3.0,77,0.00,,,0.07,137,weatherlink.com 1.10,2013-07-31 14:49:00,
2013-07-31 11:04:00,86.9,82.0,30.14,SSE,150,0.0,1.0,84,0.00,,,0.07,962,weatherlink.com 1.10,2013-07-31 15:04:00,
2013-07-31 11:20:00,88.8,79.0,30.14,ENE,61,1.0,4.0,73,0.00,,,0.07,269,weatherlink.com 1.10,2013-07-31 15:20:00,
2013-07-31 11:35:00,90.0,80.0,30.14,WSW,246,0.0,5.0,72,0.00,,,0.07,281,weatherlink.com 1.10,2013-07-31 15:35:00,
2013-07-31 11:51:00,89.7,79.0,30.14,West,265,1.0,6.0,70,0.00,,,0.07,318,weatherlink.com 1.10,2013-07-31 15:51:00,
2013-07-31 12:06:00,88.7,78.0,30.14,East,87,0.0,8.0,70,0.00,,,0.07,295,weatherlink.com 1.10,2013-07-31 16:06:00,
2013-07-31 12:21:00,89.5,80.0,30.13,SSW,202,3.0,5.0,73,0.00,,,0.07,935,weatherlink.com 1.10,2013-07-31 16:21:00,
2013-07-31 12:36:00,90.6,77.0,30.13,ESE,102,2.0,6.0,65,0.00,,,0.07,1030,weatherlink.com 1.10,2013-07-31 16:36:00,
2013-07-31 12:52:00,90.5,78.0,30.13,ESE,117,5.0,5.0,67,0.00,,,0.07,919,weatherlink.com 1.10,2013-07-31 16:52:00,
2013-07-31 13:22:00,91.2,77.0,30.12,WNW,284,0.0,7.0,64,0.00,,,0.07,566,weatherlink.com 1.10,2013-07-31 17:22:00,
2013-07-31 13:37:00,91.5,78.0,30.11,SSE,164,5.0,9.0,64,0.00,,,0.07,1032,weatherlink.com 1.10,2013-07-31 17:37:00,
2013-07-31 13:52:00,91.3,76.0,30.10,SE,146,1.0,6.0,61,0.00,,,0.07,944,weatherlink.com 1.10,2013-07-31 17:52:00,
2013-07-31 14:23:00,92.0,79.0,30.09,SW,222,4.0,8.0,65,0.00,,,0.07,828,weatherlink.com 1.10,2013-07-31 18:23:00,
2013-07-31 14:39:00,91.1,76.0,30.08,ESE,103,7.0,10.0,62,0.00,,,0.07,598,weatherlink.com 1.10,2013-07-31 18:39:00,
2013-07-31 14:54:00,91.4,77.0,30.08,SW,231,5.0,5.0,62,0.00,,,0.07,916,weatherlink.com 1.10,2013-07-31 18:54:00,
2013-07-31 15:08:00,91.7,75.0,30.08,SE,138,3.0,7.0,59,0.00,,,0.07,826,weatherlink.com 1.10,2013-07-31 19:08:00,
2013-07-31 15:25:00,90.9,76.0,30.07,WNW,300,0.0,10.0,62,0.00,,,0.07,749,weatherlink.com 1.10,2013-07-31 19:25:00,
2013-07-31 15:42:00,90.4,78.0,30.07,WNW,302,1.0,7.0,67,0.00,,,0.07,638,weatherlink.com 1.10,2013-07-31 19:42:00,
2013-07-31 15:55:00,89.6,77.0,30.06,SE,126,3.0,11.0,66,0.00,,,0.07,278,weatherlink.com 1.10,2013-07-31 19:55:00,
2013-07-31 16:09:00,89.4,78.0,30.06,ESE,103,1.0,8.0,70,0.00,,,0.07,684,weatherlink.com 1.10,2013-07-31 20:09:00,
2013-07-31 16:25:00,90.0,79.0,30.06,East,81,3.0,10.0,70,0.00,,,0.07,701,weatherlink.com 1.10,2013-07-31 20:25:00,
2013-07-31 16:57:00,90.3,77.0,30.04,SSE,157,5.0,9.0,65,0.00,,,0.07,457,weatherlink.com 1.10,2013-07-31 20:57:00,
2013-07-31 17:10:00,89.5,78.0,30.05,ESE,103,2.0,11.0,68,0.00,,,0.07,67,weatherlink.com 1.10,2013-07-31 21:10:00,
2013-07-31 18:42:00,87.8,75.0,30.05,SW,218,1.0,5.0,66,0.00,,,0.07,49,weatherlink.com 1.10,2013-07-31 22:42:00,
2013-07-31 18:57:00,87.0,75.0,30.05,ESE,121,1.0,8.0,67,0.00,,,0.07,37,weatherlink.com 1.10,2013-07-31 22:57:00,
2013-07-31 19:13:00,86.0,75.0,30.05,SSE,153,0.0,3.0,70,0.00,,,0.07,32,weatherlink.com 1.10,2013-07-31 23:13:00,
2013-07-31 19:27:00,85.3,74.0,30.05,SE,135,0.0,3.0,68,0.00,,,0.07,32,weatherlink.com 1.10,2013-07-31 23:27:00,
2013-07-31 19:58:00,83.8,74.0,30.06,SE,126,0.0,2.0,72,0.00,,,0.07,9,weatherlink.com 1.10,2013-07-31 23:58:00,
2013-07-31 20:14:00,83.0,74.0,30.06,ESE,109,1.0,3.0,73,0.00,,,0.07,0,weatherlink.com 1.10,2013-08-01 00:14:00,
2013-07-31 20:28:00,82.3,74.0,30.06,SE,132,0.0,3.0,75,0.00,,,0.07,0,weatherlink.com 1.10,2013-08-01 00:28:00,
2013-07-31 20:44:00,81.7,74.0,30.06,South,174,0.0,2.0,77,0.00,,,0.07,0,weatherlink.com 1.10,2013-08-01 00:44:00,
2013-07-31 22:01:00,79.5,75.0,30.09,SE,137,0.0,0.0,85,0.00,,,0.07,0,weatherlink.com 1.10,2013-08-01 02:01:00,
2013-07-31 22:15:00,79.0,75.0,30.10,SE,137,0.0,0.0,87,0.00,,,0.07,0,weatherlink.com 1.10,2013-08-01 02:15:00,
2013-07-31 22:30:00,78.3,75.0,30.10,SE,137,0.0,0.0,88,0.00,,,0.07,0,weatherlink.com 1.10,2013-08-01 02:30:00,
2013-07-31 22:47:00,77.7,74.0,30.10,SE,137,0.0,0.0,89,0.00,,,0.07,0,weatherlink.com 1.10,2013-08-01 02:47:00,
2013-07-31 23:01:00,77.2,74.0,30.10,SE,137,0.0,0.0,90,0.00,,,0.07,0,weatherlink.com 1.10,2013-08-01 03:01:00,
2013-07-31 23:16:00,76.8,74.0,30.10,SE,137,0.0,0.0,91,0.00,,,0.07,0,weatherlink.com 1.10,2013-08-01 03:16:00,
2013-07-31 23:32:00,76.4,74.0,30.09,SE,137,0.0,0.0,92,0.00,,,0.07,0,weatherlink.com 1.10,2013-08-01 03:32:00,
2013-07-31 23:47:00,76.1,74.0,30.10,SE,137,0.0,0.0,92,0.00,,,0.07,0,weatherlink.com 1.10,2013-08-01 03:47:00,